CYTS

Timmins Airport

Timmins, , Canada
TAF CYTS 260739Z 2608/2620 VRB03KT P6SM SKC BECMG 2612/2614 24006KT RMK NXT FCST BY 261400Z
Issued Valid From Valid To
Apr-26 @ 07:39 UTC
(6 hours ago)
Apr-26 @ 08:00 UTC
(6 hours ago)
Apr-26 @ 20:00 UTC
(in 6 hours)
Expired Click to View Apr-26 @ 08:00 to Apr-26 @ 12:00
TAF CYTS 260739Z 2608/2620 VRB03KT P6SM SKC
Wind Visibility Clouds
Variable at 3 knots Greater than 6 miles
  • Clear skies
Becoming Apr-26 @ 12:00 to Apr-26 @ 20:00
BECMG 2612/2614 24006KT RMK NXT FCST BY 261400Z
Wind Visibility Clouds
240° at 6 knots Greater than 6 miles
  • Clear skies
TAF CYTS 260739Z 2608/2620 VRB03KT P6SM SKC BECMG 2612/2614 24006KT RMK NXT FCST BY 261400Z
Issued Apr-26 @ 07:39 UTC
(6 hours ago)
Valid From Apr-26 @ 08:00 UTC
(6 hours ago)
Valid To Apr-26 @ 20:00 UTC
(in 6 hours)
Apr-26 @ 08:00 - Apr-26 @ 12:00
Wind Visibility
Variable at 3 knots Greater than 6 miles
Clouds
  • Clear skies
Becoming Apr-26 @ 12:00 - Apr-26 @ 20:00
Wind Visibility
240° at 6 knots Greater than 6 miles
Clouds
  • Clear skies